NCAR-RAP Real-Time Weather Data

Output produced by METARs form (12 August 2020  17:36 UTC)
found at http://weather.rap.ucar.edu/surface/
 
KHFD 121653Z VRB05KT 10SM BKN048 32/19 A3001 RMK AO2 SLP161 T03170194
KHFD 121553Z 07005KT 10SM CLR 31/19 A3001 RMK AO2 SLP163 T03110194
KHFD 121453Z 00000KT 10SM CLR 29/19 A3002 RMK AO2 SLP165 T02890194 51004
KHFD 121353Z 02008KT 10SM CLR 29/20 A3002 RMK AO2 SLP165 T02890200
KHFD 121253Z VRB05KT 10SM CLR 28/19 A3002 RMK AO2 SLP164 T02830194
KHFD 121153Z 00000KT 10SM CLR 27/20 A3001 RMK AO2 SLP161 60000 T02670200 10267 20244 51012
KHFD 121053Z 00000KT 10SM CLR 25/19 A3001 RMK AO2 SLP160 T02500194
KHFD 120953Z 26003KT 10SM CLR 25/19 A2998 RMK AO2 SLP152 T02500194
KHFD 120853Z AUTO VRB03KT 9SM CLR 26/22 A2997 RMK AO2 SLP149 60000 T02560222 53004
KHFD 120753Z AUTO 18004KT 9SM FEW016 BKN110 26/22 A2996 RMK AO2 RAB10E19 SLP145 P0000 T02560222
KHFD 120741Z AUTO 19005KT 9SM SCT017 SCT029 BKN120 26/22 A2996 RMK AO2 RAB10E19 P0000 T02560222
KHFD 120653Z AUTO 21004KT 9SM OVC017 27/22 A2996 RMK AO2 SLP144 T02670222
KHFD 120553Z AUTO 20005KT 10SM OVC015 26/22 A2996 RMK AO2 SLP145 T02610222 10283 20256 53006
KHFD 120453Z AUTO 18007KT 10SM OVC017 26/22 A2995 RMK AO2 SLP143 T02610222 403390233
KHFD 120353Z 19006KT 10SM BKN018 26/22 A2995 RMK AO2 SLP141 T02560222
KHFD 120332Z 19005KT 10SM BKN019 26/22 A2995 RMK AO2 T02560222
KHFD 120253Z 17006KT 10SM FEW019 26/22 A2994 RMK AO2 SLP139 T02560222 50009
KHFD 120153Z 18008KT 10SM CLR 26/22 A2995 RMK AO2 SLP140 T02610222
KHFD 120053Z 17009KT 10SM CLR 27/22 A2992 RMK AO2 SLP132 T02720217
KHFD 112353Z 19008KT 10SM CLR 28/22 A2992 RMK AO2 SLP130 T02830217 10339 20283 53003
KHFD 112253Z 19009KT 10SM CLR 29/21 A2991 RMK AO2 SLP128 T02940206
KHFD 112153Z 19011G18KT 10SM CLR 31/18 A2991 RMK AO2 SLP128 T03110178
KHFD 112053Z 20011G20KT 10SM FEW047 32/19 A2991 RMK AO2 SLP126 T03220189 55007
KHFD 111953Z 19010G17KT 10SM FEW050 32/21 A2990 RMK AO2 SLP125 T03220206
KHFD 111853Z 19014G22KT 10SM FEW055 32/19 A2991 RMK AO2 SLP129 T03220189
KHFD 111753Z 23010G16KT 10SM CLR 33/20 A2993 RMK AO2 SLP134 T03280200 10333 20256 56014
KHFD 111653Z VRB06KT 10SM BKN050 33/20 A2994 RMK AO2 SLP138 T03280200
KHFD 111553Z VRB06KT 10SM CLR 32/21 A2995 RMK AO2 SLP143 T03220206
KHFD 111453Z 18007KT 10SM CLR 32/22 A2997 RMK AO2 SLP148 T03170217 58000
KHFD 111353Z 17005KT 10SM CLR 29/22 A2997 RMK AO2 SLP149 T02890222
KHFD 111253Z 18005KT 9SM CLR 27/22 A2998 RMK AO2 SLP151 T02720222
KHFD 111153Z 16005KT 8SM CLR 26/23 A2997 RMK AO2 SLP148 T02560228 10256 20233 51006
KHFD 111053Z 19003KT 6SM BR FEW005 24/22 A2997 RMK AO2 SLP147 T02390222
KHFD 110953Z 00000KT 7SM CLR 24/22 A2996 RMK AO2 SLP145 T02390217
KHFD 110853Z AUTO 00000KT 8SM CLR 24/22 A2995 RMK AO2 SLP142 T02390217 53002
KHFD 110753Z AUTO 14003KT 9SM CLR 24/22 A2994 RMK AO2 SLP140 T02390217
KHFD 110653Z AUTO 18005KT 10SM CLR 24/22 A2995 RMK AO2 SLP140 T02440217
KHFD 110553Z AUTO 18004KT 10SM CLR 24/22 A2995 RMK AO2 SLP141 T02440217 10306 20244 56005
KHFD 110453Z AUTO 18004KT 10SM CLR 26/21 A2995 RMK AO2 SLP143 T02560211 403500222
KHFD 110353Z 18005KT 10SM CLR 26/21 A2995 RMK AO2 SLP140 T02610211
KHFD 110253Z 17004KT 10SM CLR 27/21 A2996 RMK AO2 SLP145 T02670211 51007
KHFD 110153Z 16005KT 10SM CLR 27/21 A2996 RMK AO2 SLP144 T02720211
KHFD 110053Z 18004KT 10SM CLR 29/19 A2996 RMK AO2 SLP143 T02890189
KHFD 102353Z 30007KT 10SM SCT055 SCT070 BKN080 31/19 A2994 RMK AO2 SLP138 T03060189 10350 20306 53008
KHFD 102253Z 24005KT 10SM BKN065 33/18 A2993 RMK AO2 LTG DSNT NE SLP134 T03280178
KHFD 102235Z 25007KT 10SM FEW065 33/18 A2993 RMK AO2 LTG DSNT NW T03330178
KHFD 102217Z 27006KT 10SM VCTS SCT065 33/18 A2992 RMK AO2 TS SE MOV E T03330178
KHFD 102153Z 26010KT 10SM SCT065 34/18 A2991 RMK AO2 SLP129 T03390178
KHFD 102053Z 27008KT 10SM BKN065 34/18 A2992 RMK AO2 SLP130 T03440178 56017
KHFD 101953Z 23007KT 190V260 10SM OVC065 34/18 A2993 RMK AO2 SLP136 T03440183
KHFD 101853Z 17005KT 10SM SCT070 SCT090 33/19 A2995 RMK AO2 SLP141 T03330189
KHFD 101753Z 20003KT 10SM SCT060 BKN080 34/19 A2997 RMK AO2 SLP147 T03390189 10339 20244 58018